createdAt,value
2019-02-18T00:00:31.365Z,0.00
2019-02-18T00:02:03.179Z,0.00
2019-02-18T00:03:35.144Z,0.00
2019-02-18T00:05:06.808Z,0.00
2019-02-18T00:06:38.624Z,0.00
2019-02-18T00:08:10.438Z,0.00
2019-02-18T00:09:42.254Z,0.00
2019-02-18T00:11:14.068Z,0.00
2019-02-18T00:12:45.882Z,0.00
2019-02-18T00:14:17.697Z,0.00
2019-02-18T00:15:49.512Z,0.00
2019-02-18T00:17:21.333Z,0.00
2019-02-18T00:18:53.140Z,0.00
2019-02-18T00:20:24.959Z,0.00
2019-02-18T00:21:57.127Z,0.00
2019-02-18T00:23:28.585Z,0.00
2019-02-18T00:25:00.400Z,0.00
2019-02-18T00:26:32.213Z,0.00
2019-02-18T00:28:04.029Z,0.00
2019-02-18T00:29:35.844Z,0.00
2019-02-18T00:31:07.658Z,0.00
2019-02-18T00:32:39.474Z,0.00
2019-02-18T00:34:11.288Z,0.00
2019-02-18T00:35:43.103Z,0.00
2019-02-18T00:37:23.895Z,0.00
2019-02-18T00:38:46.736Z,0.00
2019-02-18T00:40:18.649Z,0.00
2019-02-18T00:41:50.373Z,0.00
2019-02-18T00:43:22.180Z,0.00
2019-02-18T00:44:53.993Z,0.00
2019-02-18T00:46:25.807Z,0.00
2019-02-18T00:47:57.639Z,0.00
2019-02-18T00:49:29.442Z,0.00
2019-02-18T00:51:01.254Z,0.00
2019-02-18T00:52:33.067Z,0.00
2019-02-18T00:54:04.886Z,0.00
2019-02-18T00:55:36.696Z,0.00
2019-02-18T00:57:08.511Z,0.00
2019-02-18T00:58:40.425Z,0.00
2019-02-18T01:00:12.140Z,0.00
2019-02-18T01:01:43.956Z,0.00
2019-02-18T01:03:15.770Z,0.00
2019-02-18T01:04:47.584Z,0.00
2019-02-18T01:06:19.397Z,0.00
2019-02-18T01:07:51.213Z,0.00
2019-02-18T01:09:23.028Z,0.00
2019-02-18T01:10:54.843Z,0.00
2019-02-18T01:12:26.659Z,0.00
2019-02-18T01:13:58.471Z,0.00
2019-02-18T01:15:30.285Z,0.00
2019-02-18T01:17:02.205Z,0.00
2019-02-18T01:18:33.914Z,0.00
2019-02-18T01:20:05.729Z,0.00
2019-02-18T01:21:37.543Z,0.00
2019-02-18T01:23:09.358Z,0.00
2019-02-18T01:24:41.175Z,0.00
2019-02-18T01:26:12.985Z,0.00
2019-02-18T01:27:44.800Z,0.00
2019-02-18T01:29:16.615Z,0.00
2019-02-18T01:32:20.242Z,0.00
2019-02-18T01:33:52.057Z,0.00
2019-02-18T01:35:23.972Z,0.00
2019-02-18T01:36:55.686Z,0.00
2019-02-18T01:38:27.501Z,0.00
2019-02-18T01:39:59.315Z,0.00
2019-02-18T01:41:31.130Z,0.00
2019-02-18T01:43:02.943Z,0.00
2019-02-18T01:44:34.757Z,0.00
2019-02-18T01:46:06.571Z,0.00
2019-02-18T01:47:38.386Z,0.00
2019-02-18T01:49:10.200Z,0.00
2019-02-18T01:50:42.015Z,0.00
2019-02-18T01:52:13.828Z,0.00
2019-02-18T01:53:45.742Z,0.00
2019-02-18T01:55:17.455Z,0.00
2019-02-18T01:56:49.270Z,0.00
2019-02-18T01:58:21.084Z,0.00
2019-02-18T01:59:52.897Z,0.00
2019-02-18T02:01:24.711Z,0.00
2019-02-18T02:02:56.525Z,0.00
2019-02-18T02:04:28.340Z,0.00
2019-02-18T02:06:00.153Z,0.00
2019-02-18T02:07:31.968Z,0.00
2019-02-18T02:09:03.782Z,0.00
2019-02-18T02:10:35.595Z,0.00
2019-02-18T02:12:07.511Z,0.00
2019-02-18T02:13:39.224Z,0.00
2019-02-18T02:15:11.038Z,0.00
2019-02-18T02:16:42.854Z,0.00
2019-02-18T02:18:14.667Z,0.00
2019-02-18T02:19:46.478Z,0.00
2019-02-18T02:21:18.293Z,0.00
2019-02-18T02:22:50.107Z,0.00
2019-02-18T02:24:21.921Z,0.00
2019-02-18T02:25:53.735Z,0.00
2019-02-18T02:27:25.548Z,0.00
2019-02-18T02:28:57.362Z,0.00
2019-02-18T02:30:29.279Z,0.00
2019-02-18T02:32:00.998Z,0.00
2019-02-18T02:33:32.805Z,0.00
2019-02-18T02:35:04.626Z,0.00
2019-02-18T02:36:36.432Z,0.00
2019-02-18T02:38:08.370Z,0.00
2019-02-18T02:39:40.061Z,0.00
2019-02-18T02:41:11.876Z,0.00
2019-02-18T02:42:43.689Z,0.00
2019-02-18T02:44:15.503Z,0.00
2019-02-18T02:45:47.318Z,0.00
2019-02-18T02:47:19.132Z,0.00
2019-02-18T02:48:51.046Z,0.00
2019-02-18T02:50:22.765Z,0.00
2019-02-18T02:51:54.574Z,0.00
2019-02-18T02:53:26.390Z,0.00
2019-02-18T02:54:58.207Z,0.00
2019-02-18T02:56:30.017Z,0.00
2019-02-18T02:58:01.830Z,0.00
2019-02-18T02:59:33.646Z,0.00
2019-02-18T03:01:05.459Z,0.00
2019-02-18T03:02:37.273Z,0.00
2019-02-18T03:04:09.095Z,0.00
2019-02-18T03:05:40.901Z,0.00
2019-02-18T03:07:12.816Z,0.00
2019-02-18T03:08:44.530Z,0.00
2019-02-18T03:10:16.343Z,0.00
2019-02-18T03:11:48.157Z,0.00
2019-02-18T03:13:19.971Z,0.00
2019-02-18T03:14:51.784Z,0.00
2019-02-18T03:16:23.608Z,0.00
2019-02-18T03:17:55.412Z,0.00
2019-02-18T03:19:27.226Z,0.00
2019-02-18T03:20:59.044Z,0.00
2019-02-18T03:22:30.857Z,0.00
2019-02-18T03:24:02.667Z,0.00
2019-02-18T03:25:34.590Z,0.00
2019-02-18T03:27:06.295Z,0.00
2019-02-18T03:28:38.109Z,0.00
2019-02-18T03:30:09.925Z,0.00
2019-02-18T03:31:41.741Z,0.00
2019-02-18T03:33:13.552Z,0.00
2019-02-18T03:34:45.367Z,0.00
2019-02-18T03:36:17.189Z,0.00
2019-02-18T03:39:20.808Z,0.00
2019-02-18T03:41:02.712Z,0.00
2019-02-18T03:42:24.437Z,0.00
2019-02-18T03:43:56.251Z,0.00
2019-02-18T03:45:28.180Z,0.00
2019-02-18T03:46:59.878Z,0.00
2019-02-18T03:48:31.739Z,0.00
2019-02-18T03:50:03.505Z,0.00
2019-02-18T03:51:35.327Z,0.00
2019-02-18T03:53:07.133Z,0.00
2019-02-18T03:54:39.066Z,0.00
2019-02-18T03:56:10.761Z,0.00
2019-02-18T03:57:42.573Z,0.00
2019-02-18T03:59:14.392Z,0.00
2019-02-18T04:00:46.201Z,0.00
2019-02-18T04:02:18.015Z,0.00
2019-02-18T04:03:49.985Z,0.00
2019-02-18T04:05:21.643Z,0.00
2019-02-18T04:06:53.455Z,0.00
2019-02-18T04:08:25.279Z,0.00
2019-02-18T04:09:57.084Z,0.00
2019-02-18T04:11:28.898Z,0.00
2019-02-18T04:13:00.714Z,0.00
2019-02-18T04:14:32.525Z,0.00
2019-02-18T04:16:04.340Z,0.00
2019-02-18T04:17:36.154Z,0.00
2019-02-18T04:19:07.968Z,0.00
2019-02-18T04:20:39.780Z,0.00
2019-02-18T04:22:11.694Z,0.00
2019-02-18T04:23:43.408Z,0.00
2019-02-18T04:25:15.225Z,0.00
2019-02-18T04:26:47.036Z,0.00
2019-02-18T04:28:18.851Z,0.00
2019-02-18T04:29:50.664Z,0.00
2019-02-18T04:31:22.478Z,0.00
2019-02-18T04:32:54.291Z,0.00
2019-02-18T04:34:26.106Z,0.00
2019-02-18T04:35:57.919Z,0.00
2019-02-18T04:37:29.734Z,0.00
2019-02-18T04:39:01.546Z,0.00
2019-02-18T04:40:33.460Z,0.00
2019-02-18T04:42:05.173Z,0.00
2019-02-18T04:43:36.987Z,0.00
2019-02-18T04:45:08.827Z,0.00
2019-02-18T04:46:40.717Z,0.00
2019-02-18T04:48:12.430Z,0.00
2019-02-18T04:49:44.242Z,0.00
2019-02-18T04:51:16.064Z,0.00
2019-02-18T04:52:47.871Z,0.00
2019-02-18T04:54:19.684Z,0.00
2019-02-18T04:55:51.495Z,0.00
2019-02-18T04:57:23.314Z,0.00
2019-02-18T04:58:55.266Z,0.00
2019-02-18T05:00:26.937Z,0.00
2019-02-18T05:01:58.751Z,0.00
2019-02-18T05:03:30.565Z,0.00
2019-02-18T05:05:02.383Z,0.00
2019-02-18T05:06:34.192Z,0.00
2019-02-18T05:08:06.005Z,0.00
2019-02-18T05:09:39.866Z,0.00
2019-02-18T05:11:09.638Z,0.00
2019-02-18T05:12:41.448Z,0.00
2019-02-18T05:14:13.310Z,0.00
2019-02-18T05:15:45.074Z,0.00
2019-02-18T05:17:16.990Z,0.00
2019-02-18T05:18:49.240Z,0.00
2019-02-18T05:20:20.515Z,0.00
2019-02-18T05:21:52.328Z,0.00
2019-02-18T05:23:24.142Z,0.00
2019-02-18T05:24:55.968Z,0.00
2019-02-18T05:26:27.769Z,0.00
2019-02-18T05:27:59.592Z,0.00
2019-02-18T05:29:31.410Z,0.00
2019-02-18T05:31:03.211Z,0.00
2019-02-18T05:32:35.023Z,0.00
2019-02-18T05:34:06.838Z,0.00
2019-02-18T05:35:38.751Z,0.00
2019-02-18T05:37:10.468Z,0.00
2019-02-18T05:38:42.279Z,0.00
2019-02-18T05:40:14.094Z,0.00
2019-02-18T05:41:45.907Z,0.00
2019-02-18T05:43:17.720Z,0.00
2019-02-18T05:44:49.738Z,0.00
2019-02-18T05:46:21.350Z,0.00
2019-02-18T05:47:53.261Z,0.00
2019-02-18T05:49:24.975Z,0.00
2019-02-18T05:50:56.790Z,0.00
2019-02-18T05:52:28.603Z,0.00
2019-02-18T05:54:00.524Z,0.00
2019-02-18T05:55:32.230Z,0.00
2019-02-18T05:57:04.044Z,0.00
2019-02-18T05:58:35.858Z,0.00
2019-02-18T06:00:07.672Z,0.00
2019-02-18T06:01:39.495Z,0.00
2019-02-18T06:03:11.299Z,0.00
2019-02-18T06:04:43.114Z,0.00
2019-02-18T06:06:14.926Z,0.00
2019-02-18T06:07:46.741Z,0.00
2019-02-18T06:09:29.092Z,0.00
2019-02-18T06:10:50.367Z,0.00
2019-02-18T06:12:22.282Z,0.00
2019-02-18T06:13:53.994Z,0.00
2019-02-18T06:15:25.808Z,0.00
2019-02-18T06:16:57.621Z,0.00
2019-02-18T06:18:29.438Z,0.00
2019-02-18T06:20:01.252Z,0.00
2019-02-18T06:21:33.062Z,0.00
2019-02-18T06:23:04.886Z,0.00
2019-02-18T06:24:36.690Z,0.00
2019-02-18T06:26:08.503Z,0.00
2019-02-18T06:27:40.373Z,0.00
2019-02-18T06:29:12.132Z,0.00
2019-02-18T06:30:44.044Z,0.00
2019-02-18T06:32:15.761Z,0.00
2019-02-18T06:33:47.571Z,0.00
2019-02-18T06:35:19.402Z,0.00
2019-02-18T06:36:51.198Z,0.00
2019-02-18T06:38:23.013Z,0.00
2019-02-18T06:39:54.825Z,0.00
2019-02-18T06:41:26.638Z,0.00
2019-02-18T06:42:58.451Z,0.00
2019-02-18T06:44:30.264Z,0.00
2019-02-18T06:46:02.078Z,0.00
2019-02-18T06:47:33.891Z,0.00
2019-02-18T06:49:06.007Z,0.00
2019-02-18T06:50:37.518Z,0.00
2019-02-18T06:52:09.331Z,0.00
2019-02-18T06:53:41.144Z,0.00
2019-02-18T06:55:12.958Z,0.00
2019-02-18T06:56:44.772Z,0.00
2019-02-18T06:58:16.584Z,0.00
2019-02-18T06:59:48.396Z,0.00
2019-02-18T07:01:20.210Z,0.00
2019-02-18T07:02:52.023Z,0.00
2019-02-18T07:04:23.835Z,0.00
2019-02-18T07:05:55.649Z,0.00
2019-02-18T07:07:27.565Z,0.00
2019-02-18T07:08:59.276Z,0.00
2019-02-18T07:10:31.088Z,0.00
2019-02-18T07:12:02.902Z,0.00
2019-02-18T07:13:34.727Z,0.00
2019-02-18T07:15:06.527Z,0.00
2019-02-18T07:16:38.341Z,0.00
2019-02-18T07:18:10.155Z,0.00
2019-02-18T07:19:41.967Z,0.00
2019-02-18T07:21:13.780Z,0.00
2019-02-18T07:22:45.624Z,0.00
2019-02-18T07:24:17.406Z,0.00
2019-02-18T07:25:49.374Z,0.00
2019-02-18T07:27:21.032Z,0.00
2019-02-18T07:28:52.845Z,0.00
2019-02-18T07:30:24.658Z,0.00
2019-02-18T07:31:56.471Z,0.00
2019-02-18T07:33:28.286Z,0.00
2019-02-18T07:35:00.351Z,0.00
2019-02-18T07:36:31.910Z,0.00
2019-02-18T07:38:03.723Z,0.00
2019-02-18T07:39:35.539Z,0.00
2019-02-18T07:41:07.349Z,0.00
2019-02-18T07:42:39.162Z,0.00
2019-02-18T07:44:11.076Z,0.00
2019-02-18T07:45:42.788Z,0.00
2019-02-18T07:47:14.600Z,0.00
2019-02-18T07:48:46.416Z,0.00
2019-02-18T07:50:20.938Z,0.00
2019-02-18T07:51:50.051Z,0.00
2019-02-18T07:53:21.852Z,0.00
2019-02-18T07:54:53.665Z,0.00
2019-02-18T07:56:25.478Z,0.00
2019-02-18T07:57:57.291Z,0.00
2019-02-18T07:59:29.105Z,0.00
2019-02-18T08:01:00.916Z,0.00
2019-02-18T08:02:32.880Z,0.00
2019-02-18T08:04:04.542Z,0.00
2019-02-18T08:05:36.356Z,0.00
2019-02-18T08:07:08.169Z,0.00
2019-02-18T08:08:39.979Z,0.00
2019-02-18T08:10:12.576Z,0.00
2019-02-18T08:11:43.607Z,0.00
2019-02-18T08:13:15.418Z,0.00
2019-02-18T08:14:47.230Z,0.00
2019-02-18T08:16:19.045Z,0.00
2019-02-18T08:17:50.856Z,0.00
2019-02-18T08:19:22.668Z,0.00
2019-02-18T08:20:54.781Z,0.00
2019-02-18T08:22:26.299Z,0.00
2019-02-18T08:24:00.339Z,0.00
2019-02-18T08:25:29.919Z,0.00
2019-02-18T08:27:01.734Z,0.00
2019-02-18T08:28:33.544Z,0.00
2019-02-18T08:30:05.357Z,0.00
2019-02-18T08:31:37.170Z,0.00
2019-02-18T08:33:08.982Z,0.00
2019-02-18T08:34:40.794Z,4.00
2019-02-18T08:36:12.607Z,4.00
2019-02-18T08:37:44.419Z,8.00
2019-02-18T08:39:16.333Z,8.00
2019-02-18T08:40:48.050Z,16.00
2019-02-18T08:42:19.857Z,20.00
2019-02-18T08:43:51.670Z,28.00
2019-02-18T08:45:23.482Z,44.00
2019-02-18T08:46:55.297Z,64.00
2019-02-18T08:48:27.108Z,88.00
2019-02-18T08:49:58.920Z,116.00
2019-02-18T08:51:30.733Z,148.00
2019-02-18T08:53:02.546Z,184.00
2019-02-18T08:54:34.358Z,224.00
2019-02-18T08:56:06.170Z,268.00
2019-02-18T08:57:38.082Z,324.00
2019-02-18T08:59:11.135Z,380.00
2019-02-18T09:00:41.609Z,440.00
2019-02-18T09:02:13.422Z,500.00
2019-02-18T09:03:45.233Z,568.00
2019-02-18T09:05:17.104Z,644.00
2019-02-18T09:06:49.165Z,732.00
2019-02-18T09:09:52.487Z,928.00
2019-02-18T09:11:24.297Z,1044.00
2019-02-18T09:12:56.109Z,1180.00
2019-02-18T09:14:28.227Z,1340.00
2019-02-18T09:16:00.572Z,1528.00
2019-02-18T09:17:31.546Z,1768.00
2019-02-18T09:19:03.362Z,1960.00
2019-02-18T09:20:35.171Z,2116.00
2019-02-18T09:22:06.985Z,2252.00
2019-02-18T09:23:39.102Z,2372.00
2019-02-18T09:25:10.610Z,2512.00
2019-02-18T09:26:42.669Z,2652.00
2019-02-18T09:29:46.050Z,2612.00
2019-02-18T09:31:19.279Z,2544.00
2019-02-18T09:34:21.489Z,2684.00
2019-02-18T09:37:25.423Z,3168.00
2019-02-18T09:38:56.969Z,3432.00
2019-02-18T09:40:28.818Z,3668.00
2019-02-18T09:42:01.092Z,3848.00
2019-02-18T09:43:32.403Z,3880.00
2019-02-18T09:45:04.729Z,4040.00
2019-02-18T09:46:36.100Z,4352.00
2019-02-18T09:48:08.004Z,4872.00
2019-02-18T09:51:11.978Z,6336.00
2019-02-18T09:52:43.291Z,8252.00
2019-02-18T09:54:15.586Z,8368.00
2019-02-18T09:57:18.874Z,8520.00
2019-02-18T09:58:50.553Z,8952.00
2019-02-18T10:00:22.335Z,9020.00
2019-02-18T10:01:54.456Z,9328.00
2019-02-18T10:04:57.835Z,10392.00
2019-02-18T10:06:29.762Z,10568.00
2019-02-18T10:08:01.746Z,9940.00
2019-02-18T10:09:33.317Z,10100.00
2019-02-18T10:11:05.188Z,9272.00
2019-02-18T10:12:36.877Z,8740.00
2019-02-18T10:14:08.736Z,8800.00
2019-02-18T10:15:40.620Z,8896.00
2019-02-18T10:17:12.956Z,8680.00
2019-02-18T10:18:44.362Z,8292.00
2019-02-18T10:20:16.237Z,7820.00
2019-02-18T10:21:47.936Z,7636.00
2019-02-18T10:23:19.804Z,7632.00
2019-02-18T10:24:52.728Z,7392.00
2019-02-18T10:26:23.562Z,6852.00
2019-02-18T10:27:55.285Z,6376.00
2019-02-18T10:29:27.164Z,6168.00
2019-02-18T10:30:58.900Z,6580.00
2019-02-18T10:32:30.680Z,7720.00
2019-02-18T10:35:34.540Z,9488.00
2019-02-18T10:37:05.969Z,10676.00
2019-02-18T10:38:40.145Z,11552.00
2019-02-18T10:40:09.893Z,13304.00
2019-02-18T10:41:41.427Z,13348.00
2019-02-18T10:43:13.504Z,15004.00
2019-02-18T10:44:45.273Z,13844.00
2019-02-18T10:46:17.091Z,16264.00
2019-02-18T10:47:48.854Z,18016.00
2019-02-18T10:49:21.393Z,19136.00
2019-02-18T10:50:53.030Z,15836.00
2019-02-18T10:52:24.184Z,15520.00
2019-02-18T10:53:56.276Z,15600.00
2019-02-18T10:55:27.865Z,14808.00
2019-02-18T10:56:59.691Z,15264.00
2019-02-18T11:00:03.761Z,15640.00
2019-02-18T11:01:35.115Z,15196.00
2019-02-18T11:03:07.471Z,14212.00
2019-02-18T11:06:10.584Z,13980.00
2019-02-18T11:07:42.809Z,14664.00
2019-02-18T11:10:46.598Z,14840.00
2019-02-18T11:12:18.069Z,14724.00
2019-02-18T11:13:49.732Z,15724.00
2019-02-18T11:15:21.588Z,17160.00
2019-02-18T11:16:53.330Z,18816.00
2019-02-18T11:18:25.455Z,20576.00
2019-02-18T11:19:57.178Z,22528.00
2019-02-18T11:21:28.840Z,23424.00
2019-02-18T11:23:01.664Z,23264.00
2019-02-18T11:24:32.663Z,22752.00
2019-02-18T11:26:04.681Z,22048.00
2019-02-18T11:27:36.079Z,21408.00
2019-02-18T11:29:08.187Z,21280.00
2019-02-18T11:32:12.156Z,21824.00
2019-02-18T11:33:43.416Z,22080.00
2019-02-18T11:35:15.218Z,22400.00
2019-02-18T11:36:47.005Z,22976.00
2019-02-18T11:38:19.359Z,23552.00
2019-02-18T11:39:50.817Z,23776.00
2019-02-18T11:41:27.521Z,23840.00
2019-02-18T11:42:54.596Z,24224.00
2019-02-18T11:44:26.112Z,25120.00
2019-02-18T11:47:29.809Z,27360.00
2019-02-18T11:52:05.321Z,28928.00
2019-02-18T11:53:37.346Z,29760.00
2019-02-18T11:55:08.864Z,31040.00
2019-02-18T11:56:41.043Z,32320.00
2019-02-18T11:58:12.596Z,32256.00
2019-02-18T11:59:44.457Z,31008.00
2019-02-18T12:02:48.300Z,28320.00
2019-02-18T12:04:20.222Z,27360.00
2019-02-18T12:05:52.563Z,26560.00
2019-02-18T12:07:24.103Z,26336.00
2019-02-18T12:08:55.891Z,26528.00
2019-02-18T12:10:27.991Z,26912.00
2019-02-18T12:11:59.723Z,27456.00
2019-02-18T12:13:31.094Z,28960.00
2019-02-18T12:16:34.416Z,29984.00
2019-02-18T12:18:06.266Z,30688.00
2019-02-18T12:19:38.388Z,31456.00
2019-02-18T12:21:09.912Z,32448.00
2019-02-18T12:22:41.669Z,33248.00
2019-02-18T12:24:13.911Z,34336.00
2019-02-18T12:25:45.762Z,35456.00
2019-02-18T12:27:17.168Z,36512.00
2019-02-18T12:28:50.090Z,37856.00
2019-02-18T12:30:21.470Z,37696.00
2019-02-18T12:31:53.178Z,37472.00
2019-02-18T12:33:25.085Z,36736.00
2019-02-18T12:34:56.268Z,36064.00
2019-02-18T12:36:28.631Z,36064.00
2019-02-18T12:39:33.273Z,32960.00
2019-02-18T12:41:04.993Z,34464.00
2019-02-18T12:42:35.861Z,34016.00
2019-02-18T12:44:07.747Z,51744.00
2019-02-18T12:47:11.521Z,46624.00
2019-02-18T12:48:44.209Z,45088.00
2019-02-18T12:51:46.315Z,50240.00
2019-02-18T12:53:18.463Z,47264.00
2019-02-18T12:54:50.405Z,47392.00
2019-02-18T12:56:21.799Z,39808.00
2019-02-18T12:57:53.958Z,46944.00
2019-02-18T12:59:28.794Z,49024.00
2019-02-18T13:00:58.167Z,43072.00
2019-02-18T13:02:29.474Z,49536.00
2019-02-18T13:04:02.325Z,44384.00
2019-02-18T13:05:33.407Z,50464.00
2019-02-18T13:08:36.549Z,61120.00
2019-02-18T13:10:08.252Z,56320.00
2019-02-18T13:11:40.116Z,69728.00
2019-02-18T13:13:11.913Z,33248.00
2019-02-18T13:14:44.299Z,59552.00
2019-02-18T13:16:16.169Z,57664.00
2019-02-18T13:17:47.981Z,42016.00
2019-02-18T13:19:19.841Z,78048.00
2019-02-18T13:22:23.113Z,43200.00
2019-02-18T13:23:54.812Z,38272.00
2019-02-18T13:25:27.018Z,74176.00
2019-02-18T13:30:02.053Z,43456.00
2019-02-18T13:31:34.051Z,34752.00
2019-02-18T13:33:05.733Z,30496.00
2019-02-18T13:36:09.374Z,40448.00
2019-02-18T13:37:41.170Z,24352.00
2019-02-18T13:39:13.016Z,45536.00
2019-02-18T13:40:45.326Z,57696.00
2019-02-18T13:42:16.727Z,74624.00
2019-02-18T13:43:49.147Z,56448.00
2019-02-18T13:45:20.285Z,71776.00
2019-02-18T13:46:53.167Z,23424.00
2019-02-18T13:48:23.954Z,71136.00
2019-02-18T13:49:56.123Z,77312.00
2019-02-18T13:51:27.804Z,28896.00
2019-02-18T13:52:59.452Z,73984.00
2019-02-18T13:54:31.341Z,85312.00
2019-02-18T13:56:03.265Z,90400.00
2019-02-18T13:57:34.941Z,80128.00
2019-02-18T14:00:38.820Z,85856.00
2019-02-18T14:02:10.372Z,80480.00
2019-02-18T14:03:42.563Z,38976.00
2019-02-18T14:05:14.696Z,74144.00
2019-02-18T14:06:46.297Z,48000.00
2019-02-18T14:08:17.965Z,46016.00
2019-02-18T14:09:49.536Z,101792.00
2019-02-18T14:11:21.644Z,85568.00
2019-02-18T14:14:25.034Z,72768.00
2019-02-18T14:15:56.846Z,68384.00
2019-02-18T14:19:00.534Z,51840.00
2019-02-18T14:20:32.427Z,67040.00
2019-02-18T14:22:04.578Z,67840.00
2019-02-18T14:23:37.974Z,102240.00
2019-02-18T14:25:07.777Z,49280.00
2019-02-18T14:28:11.532Z,113600.00
2019-02-18T14:29:43.820Z,97152.00
2019-02-18T14:32:47.113Z,55552.00
2019-02-18T14:34:18.855Z,48928.00
2019-02-18T14:35:51.204Z,57888.00
2019-02-18T14:37:22.895Z,95296.00
2019-02-18T14:38:54.590Z,88512.00
2019-02-18T14:40:26.458Z,50720.00
2019-02-18T14:41:58.193Z,62144.00
2019-02-18T14:43:30.392Z,102816.00
2019-02-18T14:45:01.662Z,80704.00
2019-02-18T14:46:33.584Z,43008.00
2019-02-18T14:49:37.182Z,67392.00
2019-02-18T14:51:08.973Z,47456.00
2019-02-18T14:52:40.994Z,42336.00
2019-02-18T14:54:12.629Z,78016.00
2019-02-18T14:55:45.439Z,59488.00
2019-02-18T14:57:16.166Z,113472.00
2019-02-18T15:00:20.464Z,99616.00
2019-02-18T15:03:23.991Z,97920.00
2019-02-18T15:04:55.632Z,62528.00
2019-02-18T15:06:27.546Z,53408.00
2019-02-18T15:07:59.001Z,109984.00
2019-02-18T15:09:31.336Z,118912.00
2019-02-18T15:11:02.645Z,112576.00
2019-02-18T15:12:34.681Z,59360.00
2019-02-18T15:15:38.206Z,60704.00
2019-02-18T15:17:10.337Z,85344.00
2019-02-18T15:18:42.292Z,113056.00
2019-02-18T15:20:13.915Z,60608.00
2019-02-18T15:21:45.822Z,101696.00
2019-02-18T15:23:17.293Z,102432.00
2019-02-18T15:24:49.156Z,64000.00
2019-02-18T15:27:52.808Z,100192.00
2019-02-18T15:29:25.008Z,139840.00
2019-02-18T15:30:56.514Z,107584.00
2019-02-18T15:32:28.451Z,129568.00
2019-02-18T15:34:00.043Z,80832.00
2019-02-18T15:35:31.908Z,56032.00
2019-02-18T15:37:03.800Z,117792.00
2019-02-18T15:38:35.536Z,119616.00
2019-02-18T15:40:07.468Z,81568.00
2019-02-18T15:41:39.500Z,73984.00
2019-02-18T15:43:11.324Z,127008.00
2019-02-18T15:44:42.947Z,126368.00
2019-02-18T15:50:50.178Z,134240.00
2019-02-18T15:52:22.087Z,41728.00
2019-02-18T15:53:53.943Z,143360.00
2019-02-18T15:56:57.648Z,126688.00
2019-02-18T15:58:29.330Z,65536.00
2019-02-18T16:00:01.164Z,139264.00
2019-02-18T16:01:32.995Z,133056.00
2019-02-18T16:03:04.835Z,105248.00
2019-02-18T16:04:36.777Z,48064.00
2019-02-18T16:07:40.428Z,64544.00
2019-02-18T16:10:44.025Z,40320.00
2019-02-18T16:12:16.126Z,46176.00
2019-02-18T16:13:47.979Z,139168.00
2019-02-18T16:15:19.537Z,63456.00
2019-02-18T16:16:51.814Z,113984.00
2019-02-18T16:18:23.322Z,139104.00
2019-02-18T16:19:54.960Z,81888.00
2019-02-18T16:21:27.416Z,38208.00
2019-02-18T16:22:58.611Z,33792.00
2019-02-18T16:24:30.850Z,48032.00
2019-02-18T16:26:02.929Z,128448.00
2019-02-18T16:27:34.301Z,128704.00
2019-02-18T16:29:06.646Z,136128.00
2019-02-18T16:30:37.749Z,84608.00
2019-02-18T16:32:09.912Z,124608.00
2019-02-18T16:33:41.537Z,122144.00
2019-02-18T16:35:13.775Z,119424.00
2019-02-18T16:36:45.915Z,32864.00
2019-02-18T16:38:16.945Z,111232.00
2019-02-18T16:39:49.020Z,69696.00
2019-02-18T16:41:20.900Z,33280.00
2019-02-18T16:42:59.055Z,37888.00
2019-02-18T16:44:24.502Z,104160.00
2019-02-18T16:45:56.044Z,148320.00
2019-02-18T16:47:28.308Z,76000.00
2019-02-18T16:49:00.045Z,98240.00
2019-02-18T16:50:31.619Z,128192.00
2019-02-18T16:52:04.558Z,73792.00
2019-02-18T16:53:35.463Z,79744.00
2019-02-18T16:55:07.129Z,134688.00
2019-02-18T16:56:39.073Z,143648.00
2019-02-18T16:58:10.667Z,147328.00
2019-02-18T16:59:42.841Z,147744.00
2019-02-18T17:01:15.658Z,136800.00
2019-02-18T17:02:48.452Z,61664.00
2019-02-18T17:04:19.984Z,119328.00
2019-02-18T17:05:50.203Z,134112.00
2019-02-18T17:07:21.793Z,138272.00
2019-02-18T17:08:54.027Z,130880.00
2019-02-18T17:10:26.419Z,127872.00
2019-02-18T17:12:00.810Z,132192.00
2019-02-18T17:13:30.215Z,67232.00
2019-02-18T17:15:00.831Z,38656.00
2019-02-18T17:16:34.639Z,136832.00
2019-02-18T17:18:04.842Z,142016.00
2019-02-18T17:19:37.396Z,111776.00
2019-02-18T17:21:08.387Z,146912.00
2019-02-18T17:22:40.803Z,68384.00
2019-02-18T17:24:13.632Z,71136.00
2019-02-18T17:25:44.722Z,38208.00
2019-02-18T17:27:17.261Z,36864.00
2019-02-18T17:28:48.113Z,141632.00
2019-02-18T17:30:21.091Z,50848.00
2019-02-18T17:31:51.562Z,106176.00
2019-02-18T17:33:23.528Z,109568.00
2019-02-18T17:34:54.795Z,50912.00
2019-02-18T17:36:26.654Z,53472.00
2019-02-18T17:37:58.591Z,98368.00
2019-02-18T17:39:31.070Z,126304.00
2019-02-18T17:41:03.123Z,97568.00
2019-02-18T17:42:33.996Z,51648.00
2019-02-18T17:44:05.869Z,105568.00
2019-02-18T17:45:39.692Z,87968.00
2019-02-18T17:47:09.236Z,137920.00
2019-02-18T17:48:41.375Z,133376.00
2019-02-18T17:51:44.995Z,101568.00
2019-02-18T17:53:16.905Z,113088.00
2019-02-18T17:54:49.571Z,45376.00
2019-02-18T17:56:20.951Z,131808.00
2019-02-18T17:57:53.678Z,96896.00
2019-02-18T17:59:24.221Z,121024.00
2019-02-18T18:00:56.611Z,117376.00
2019-02-18T18:02:27.760Z,130784.00
2019-02-18T18:04:00.321Z,137920.00
2019-02-18T18:05:31.422Z,139296.00
2019-02-18T18:07:03.205Z,134720.00
2019-02-18T18:08:35.108Z,137888.00
2019-02-18T18:10:07.732Z,109152.00
2019-02-18T18:11:38.760Z,35616.00
2019-02-18T18:13:10.717Z,123968.00
2019-02-18T18:14:43.023Z,124256.00
2019-02-18T18:16:14.316Z,43488.00
2019-02-18T18:19:18.008Z,115808.00
2019-02-18T18:20:49.874Z,106240.00
2019-02-18T18:23:53.445Z,102368.00
2019-02-18T18:25:25.774Z,68416.00
2019-02-18T18:26:56.908Z,48672.00
2019-02-18T18:28:29.140Z,51712.00
2019-02-18T18:30:01.046Z,44544.00
2019-02-18T18:31:32.491Z,31360.00
2019-02-18T18:33:04.452Z,31072.00
2019-02-18T18:36:08.759Z,30432.00
2019-02-18T18:39:11.989Z,23808.00
2019-02-18T18:40:43.742Z,24928.00
2019-02-18T18:43:48.537Z,30336.00
2019-02-18T18:45:18.819Z,35136.00
2019-02-18T18:46:52.653Z,38880.00
2019-02-18T18:48:23.208Z,46496.00
2019-02-18T18:49:54.759Z,62560.00
2019-02-18T18:51:26.557Z,62720.00
2019-02-18T18:52:57.720Z,52896.00
2019-02-18T18:54:30.311Z,93088.00
2019-02-18T18:56:01.367Z,94912.00
2019-02-18T18:57:33.793Z,51904.00
2019-02-18T18:59:05.320Z,60096.00
2019-02-18T19:00:37.348Z,43968.00
2019-02-18T19:02:09.699Z,37504.00
2019-02-18T19:03:41.406Z,40416.00
2019-02-18T19:05:12.381Z,45408.00
2019-02-18T19:06:44.623Z,41280.00
2019-02-18T19:08:16.502Z,81088.00
2019-02-18T19:09:49.242Z,101568.00
2019-02-18T19:11:20.140Z,93408.00
2019-02-18T19:12:51.923Z,100864.00
2019-02-18T19:14:23.704Z,103104.00
2019-02-18T19:15:55.500Z,103968.00
2019-02-18T19:17:27.394Z,68448.00
2019-02-18T19:18:59.784Z,70304.00
2019-02-18T19:20:31.052Z,45952.00
2019-02-18T19:22:03.312Z,41696.00
2019-02-18T19:23:34.985Z,24704.00
2019-02-18T19:25:06.797Z,14984.00
2019-02-18T19:26:38.702Z,11752.00
2019-02-18T19:28:10.183Z,11700.00
2019-02-18T19:29:41.935Z,12416.00
2019-02-18T19:31:14.426Z,16264.00
2019-02-18T19:32:46.644Z,18848.00
2019-02-18T19:34:17.495Z,21248.00
2019-02-18T19:35:49.373Z,25888.00
2019-02-18T19:37:21.687Z,22400.00
2019-02-18T19:38:53.037Z,16268.00
2019-02-18T19:40:25.175Z,14120.00
2019-02-18T19:41:56.803Z,15308.00
2019-02-18T19:43:28.534Z,14688.00
2019-02-18T19:45:00.525Z,18176.00
2019-02-18T19:46:32.166Z,16536.00
2019-02-18T19:48:04.112Z,15328.00
2019-02-18T19:49:35.831Z,14104.00
2019-02-18T19:51:07.715Z,13176.00
2019-02-18T19:52:40.189Z,12440.00
2019-02-18T19:54:11.850Z,14432.00
2019-02-18T19:55:43.240Z,26048.00
2019-02-18T19:57:14.837Z,15052.00
2019-02-18T19:58:46.814Z,19424.00
2019-02-18T20:00:18.595Z,14036.00
2019-02-18T20:01:50.367Z,12716.00
2019-02-18T20:03:22.104Z,12028.00
2019-02-18T20:04:54.041Z,11636.00
2019-02-18T20:06:26.147Z,11256.00
2019-02-18T20:07:57.921Z,11776.00
2019-02-18T20:09:30.045Z,15676.00
2019-02-18T20:11:01.725Z,10340.00
2019-02-18T20:12:33.305Z,9412.00
2019-02-18T20:14:04.880Z,8872.00